Time;durP1;ratioP1;P1;durP2;ratioP2;P2;SDS_P1;SDS_P2;PMS_P1;PMS_P2;Temp;Humidity;BMP_temperature;BMP_pressure;BME280_temperature;BME280_humidity;BME280_pressure;Samples;Min_cycle;Max_cycle;Signal;HPM_P1;HPM_P2
2021/09/06 00:00:05;;;;;;;34.42;26.52;;;;;;;;;;5076865;28;20073;-59
2021/09/06 00:02:30;;;;;;;34.67;28.10;;;;;;;;;;5076841;28;20024;-59
2021/09/06 00:04:55;;;;;;;38.50;29.13;;;;;;;;;;5074251;28;20035;-59
2021/09/06 00:07:20;;;;;;;34.28;26.95;;;;;;;;;;5082144;28;20353;-58
2021/09/06 00:09:49;;;;;;;28.33;24.88;;;;;;;;;;5075282;28;20036;-58
2021/09/06 00:12:14;;;;;;;32.63;25.08;;;;;;;;;;5076178;28;20020;-59
2021/09/06 00:14:39;;;;;;;27.60;22.98;;;;;;;;;;5072934;28;20081;-58
2021/09/06 00:17:05;;;;;;;29.05;23.15;;;;;;;;;;5075509;28;20016;-58
2021/09/06 00:19:30;;;;;;;26.88;22.50;;;;;;;;;;5072455;28;20017;-58
2021/09/06 00:21:55;;;;;;;28.33;22.48;;;;;;;;;;5054758;28;20395;-59
2021/09/06 00:24:20;;;;;;;35.10;26.75;;;;;;;;;;5072471;28;20024;-59
2021/09/06 00:26:45;;;;;;;39.78;28.17;;;;;;;;;;5079518;28;20016;-59
2021/09/06 00:29:11;;;;;;;36.13;28.02;;;;;;;;;;5092329;28;20411;-59
2021/09/06 00:31:36;;;;;;;36.78;28.98;;;;;;;;;;5103216;28;20019;-59
2021/09/06 00:34:01;;;;;;;45.50;32.97;;;;;;;;;;5113248;28;20027;-59
2021/09/06 00:36:26;;;;;;;46.15;31.83;;;;;;;;;;5105439;28;20047;-58
2021/09/06 00:38:51;;;;;;;50.67;33.65;;;;;;;;;;5098415;28;20110;-58
2021/09/06 00:41:18;;;;;;;55.05;33.35;;;;;;;;;;5089114;28;20103;-58
2021/09/06 00:43:44;;;;;;;48.45;33.10;;;;;;;;;;5096236;28;20438;-59
2021/09/06 00:46:09;;;;;;;53.92;34.55;;;;;;;;;;5105165;28;20095;-59
2021/09/06 00:48:34;;;;;;;54.67;35.42;;;;;;;;;;5083273;28;20382;-58
2021/09/06 00:50:59;;;;;;;54.35;35.22;;;;;;;;;;5096758;28;20051;-58
2021/09/06 00:53:25;;;;;;;58.53;36.10;;;;;;;;;;5092975;28;20145;-59
2021/09/06 00:55:50;;;;;;;55.83;35.78;;;;;;;;;;5092798;28;20067;-58
2021/09/06 00:58:15;;;;;;;62.28;36.88;;;;;;;;;;5093928;28;20047;-59
2021/09/06 01:00:40;;;;;;;60.80;36.65;;;;;;;;;;5095690;28;20020;-59
2021/09/06 01:03:06;;;;;;;65.72;37.22;;;;;;;;;;5097298;28;20277;-58
2021/09/06 01:05:31;;;;;;;76.22;37.88;;;;;;;;;;5102891;28;20085;-59
2021/09/06 01:07:56;;;;;;;102.18;41.20;;;;;;;;;;5098081;28;20108;-58
2021/09/06 01:10:22;;;;;;;115.43;40.80;;;;;;;;;;5095855;28;20023;-58
2021/09/06 01:12:48;;;;;;;181.23;47.97;;;;;;;;;;5102518;28;20032;-59
2021/09/06 01:15:13;;;;;;;127.88;40.33;;;;;;;;;;5091662;28;20020;-58
2021/09/06 01:17:38;;;;;;;168.63;44.45;;;;;;;;;;5092209;28;20050;-58
2021/09/06 01:20:05;;;;;;;70.50;34.22;;;;;;;;;;5106069;28;20020;-58
2021/09/06 01:22:30;;;;;;;157.05;42.88;;;;;;;;;;5100006;28;20024;-58
2021/09/06 01:24:55;;;;;;;57.95;35.45;;;;;;;;;;5100203;28;20070;-58
2021/09/06 01:27:21;;;;;;;35.03;28.45;;;;;;;;;;5092080;28;20015;-59
2021/09/06 01:29:46;;;;;;;33.83;28.60;;;;;;;;;;5091733;28;20051;-58
2021/09/06 01:32:11;;;;;;;32.20;27.30;;;;;;;;;;5104002;28;20023;-58
2021/09/06 01:34:37;;;;;;;33.95;28.40;;;;;;;;;;5095985;28;20024;-59
2021/09/06 01:37:02;;;;;;;34.25;27.83;;;;;;;;;;5094868;28;20115;-57
2021/09/06 01:39:27;;;;;;;31.38;26.10;;;;;;;;;;5112503;28;20039;-59
2021/09/06 01:41:53;;;;;;;34.08;27.13;;;;;;;;;;5110873;28;20047;-60
2021/09/06 01:44:18;;;;;;;33.92;27.92;;;;;;;;;;5111815;28;20026;-59
2021/09/06 01:46:43;;;;;;;33.65;28.42;;;;;;;;;;5085518;28;20028;-59
2021/09/06 01:49:09;;;;;;;30.58;25.75;;;;;;;;;;5100595;28;20033;-58
2021/09/06 01:51:34;;;;;;;38.42;28.38;;;;;;;;;;5092100;28;20106;-59
2021/09/06 01:53:59;;;;;;;40.80;30.25;;;;;;;;;;5091820;28;20031;-57
2021/09/06 01:56:24;;;;;;;44.90;31.13;;;;;;;;;;5092524;28;20024;-58
2021/09/06 01:58:50;;;;;;;39.65;29.30;;;;;;;;;;5094574;28;20030;-58
2021/09/06 02:01:15;;;;;;;46.97;29.73;;;;;;;;;;5106758;28;20031;-58
2021/09/06 02:03:41;;;;;;;38.90;26.90;;;;;;;;;;5106685;28;20577;-58
2021/09/06 02:06:06;;;;;;;33.58;25.08;;;;;;;;;;5077185;28;20020;-58
2021/09/06 02:08:32;;;;;;;30.33;24.45;;;;;;;;;;5091493;28;20442;-58
2021/09/06 02:10:57;;;;;;;32.38;24.52;;;;;;;;;;5091530;28;20024;-58
2021/09/06 02:13:22;;;;;;;34.13;25.10;;;;;;;;;;5085279;28;20029;-58
2021/09/06 02:15:47;;;;;;;33.90;26.23;;;;;;;;;;5053430;28;20024;-58
2021/09/06 02:18:13;;;;;;;37.67;26.67;;;;;;;;;;5071555;28;20108;-58
2021/09/06 02:20:38;;;;;;;36.78;26.15;;;;;;;;;;5082100;28;20031;-59
2021/09/06 02:23:04;;;;;;;54.05;28.77;;;;;;;;;;5091810;28;20107;-59
2021/09/06 02:25:29;;;;;;;108.13;31.92;;;;;;;;;;5091282;28;20017;-59
2021/09/06 02:27:54;;;;;;;155.85;36.65;;;;;;;;;;5093291;28;20047;-59
2021/09/06 02:30:19;;;;;;;126.63;37.28;;;;;;;;;;5105521;28;20424;-59
2021/09/06 02:32:45;;;;;;;120.18;33.90;;;;;;;;;;5091292;28;20409;-59
2021/09/06 02:35:10;;;;;;;130.35;36.83;;;;;;;;;;5085080;28;20034;-58
2021/09/06 02:37:35;;;;;;;109.78;34.80;;;;;;;;;;5094806;28;20016;-59
2021/09/06 02:40:00;;;;;;;329.60;54.33;;;;;;;;;;5095632;28;20076;-59
2021/09/06 02:42:26;;;;;;;303.73;50.47;;;;;;;;;;5105218;28;20020;-60
2021/09/06 02:44:51;;;;;;;202.20;43.47;;;;;;;;;;5097203;28;20028;-59
2021/09/06 02:47:16;;;;;;;145.85;42.45;;;;;;;;;;5114032;28;20102;-58
2021/09/06 02:49:41;;;;;;;90.03;33.25;;;;;;;;;;5109813;28;20034;-59
2021/09/06 02:52:06;;;;;;;253.73;44.78;;;;;;;;;;5095361;28;20031;-57
2021/09/06 02:54:32;;;;;;;121.72;37.67;;;;;;;;;;5095192;28;20016;-58
2021/09/06 02:56:57;;;;;;;277.23;48.28;;;;;;;;;;5093842;28;20107;-58
2021/09/06 02:59:22;;;;;;;210.07;45.88;;;;;;;;;;5100078;28;20030;-58
2021/09/06 03:01:47;;;;;;;292.23;51.55;;;;;;;;;;5115111;28;20016;-58
2021/09/06 03:04:12;;;;;;;220.00;44.90;;;;;;;;;;5100408;28;20017;-59
2021/09/06 03:06:37;;;;;;;166.32;42.60;;;;;;;;;;5106269;28;20043;-58
2021/09/06 03:09:03;;;;;;;82.55;33.70;;;;;;;;;;5112336;28;20030;-58
2021/09/06 03:11:28;;;;;;;105.22;37.25;;;;;;;;;;5100746;28;20505;-57
2021/09/06 03:13:54;;;;;;;218.88;44.75;;;;;;;;;;5082681;28;20115;-58
2021/09/06 03:16:21;;;;;;;346.02;56.50;;;;;;;;;;5094066;28;20107;-58
2021/09/06 03:18:47;;;;;;;217.70;50.35;;;;;;;;;;5094620;28;20028;-57
2021/09/06 03:21:12;;;;;;;303.27;54.83;;;;;;;;;;5103890;28;20027;-59
2021/09/06 03:23:37;;;;;;;328.40;60.05;;;;;;;;;;5094563;28;20012;-59
2021/09/06 03:26:02;;;;;;;324.90;62.65;;;;;;;;;;5094416;28;20479;-59
2021/09/06 03:28:27;;;;;;;303.10;64.50;;;;;;;;;;5094543;28;20040;-59
2021/09/06 03:30:53;;;;;;;211.77;52.53;;;;;;;;;;5099445;28;20023;-59
2021/09/06 03:33:18;;;;;;;395.40;69.45;;;;;;;;;;5093379;28;20020;-59
2021/09/06 03:35:43;;;;;;;265.25;61.80;;;;;;;;;;5108358;28;20011;-58
2021/09/06 03:38:12;;;;;;;168.25;45.97;;;;;;;;;;5094230;28;20027;-59
2021/09/06 03:40:37;;;;;;;198.55;49.10;;;;;;;;;;5096399;28;20056;-58
2021/09/06 03:43:02;;;;;;;116.43;37.90;;;;;;;;;;5101778;28;20092;-58
2021/09/06 03:45:28;;;;;;;73.03;33.47;;;;;;;;;;5104314;28;20055;-58
2021/09/06 03:47:53;;;;;;;183.82;42.60;;;;;;;;;;5094124;28;20031;-57
2021/09/06 03:50:18;;;;;;;173.43;44.75;;;;;;;;;;5099383;28;20077;-59
2021/09/06 03:52:44;;;;;;;155.00;41.00;;;;;;;;;;5114794;28;20069;-59
2021/09/06 03:55:09;;;;;;;244.73;55.50;;;;;;;;;;5114348;28;20092;-58
2021/09/06 03:57:34;;;;;;;100.90;39.80;;;;;;;;;;5110937;28;20515;-59
2021/09/06 03:59:59;;;;;;;178.80;42.75;;;;;;;;;;5106678;28;20019;-59
2021/09/06 04:02:25;;;;;;;258.60;55.65;;;;;;;;;;5092441;28;20024;-58
2021/09/06 04:04:52;;;;;;;363.17;60.42;;;;;;;;;;5103618;28;20470;-58
2021/09/06 04:07:17;;;;;;;315.15;52.70;;;;;;;;;;5111650;28;20019;-58
2021/09/06 04:09:42;;;;;;;321.00;54.47;;;;;;;;;;5099783;28;20031;-58
2021/09/06 04:12:07;;;;;;;228.15;53.92;;;;;;;;;;5097529;28;20021;-57
2021/09/06 04:14:34;;;;;;;201.93;49.67;;;;;;;;;;5093541;28;20107;-59
2021/09/06 04:16:59;;;;;;;351.60;61.65;;;;;;;;;;5094063;28;20020;-59
2021/09/06 04:19:30;;;;;;;163.32;46.17;;;;;;;;;;5093015;28;20031;-58
2021/09/06 04:21:55;;;;;;;230.57;53.38;;;;;;;;;;5094288;28;20024;-58
2021/09/06 04:24:20;;;;;;;173.20;45.45;;;;;;;;;;5093071;28;20378;-58
2021/09/06 04:26:46;;;;;;;201.80;46.65;;;;;;;;;;5093107;28;20233;-59
2021/09/06 04:29:11;;;;;;;223.77;52.00;;;;;;;;;;5094714;28;20494;-58
2021/09/06 04:31:36;;;;;;;167.27;49.13;;;;;;;;;;5099869;28;20059;-59
2021/09/06 04:34:01;;;;;;;240.52;55.38;;;;;;;;;;5092403;28;20031;-60
2021/09/06 04:36:27;;;;;;;114.88;44.55;;;;;;;;;;5093115;28;20077;-60
2021/09/06 04:38:52;;;;;;;226.18;55.13;;;;;;;;;;5074932;28;20036;-59
2021/09/06 04:41:17;;;;;;;151.15;46.33;;;;;;;;;;5075212;28;20024;-58
2021/09/06 04:43:42;;;;;;;174.02;48.70;;;;;;;;;;5097353;28;20039;-59
2021/09/06 04:46:08;;;;;;;251.77;53.95;;;;;;;;;;5104389;28;20011;-58
2021/09/06 04:48:34;;;;;;;251.10;55.45;;;;;;;;;;5092522;28;20099;-59
2021/09/06 04:50:59;;;;;;;203.30;51.45;;;;;;;;;;5092185;28;20018;-58
2021/09/06 04:53:25;;;;;;;114.18;44.05;;;;;;;;;;5083280;28;20020;-59
2021/09/06 04:55:50;;;;;;;253.32;52.72;;;;;;;;;;5089901;28;20066;-58
2021/09/06 04:58:15;;;;;;;155.13;49.53;;;;;;;;;;5091995;28;20440;-59
2021/09/06 05:00:40;;;;;;;122.60;44.50;;;;;;;;;;5090574;28;20077;-59
2021/09/06 05:03:05;;;;;;;145.63;45.60;;;;;;;;;;5092056;28;20554;-58
2021/09/06 05:05:31;;;;;;;84.95;39.95;;;;;;;;;;5088635;28;20024;-59
2021/09/06 05:07:56;;;;;;;112.75;41.25;;;;;;;;;;5091595;28;20023;-59
2021/09/06 05:10:21;;;;;;;137.73;44.65;;;;;;;;;;5083350;28;20020;-59
2021/09/06 05:12:46;;;;;;;95.32;37.22;;;;;;;;;;5081651;28;20582;-58
2021/09/06 05:15:11;;;;;;;67.78;33.72;;;;;;;;;;5072263;28;20024;-58
2021/09/06 05:17:37;;;;;;;113.82;40.08;;;;;;;;;;5085621;28;20387;-58
2021/09/06 05:20:02;;;;;;;74.68;34.63;;;;;;;;;;5087879;28;20527;-58
2021/09/06 05:22:27;;;;;;;76.85;32.90;;;;;;;;;;5085791;28;20028;-58
2021/09/06 05:24:54;;;;;;;90.03;36.25;;;;;;;;;;5078573;28;20073;-58
2021/09/06 05:27:20;;;;;;;120.20;36.65;;;;;;;;;;5091568;28;20478;-58
2021/09/06 05:29:45;;;;;;;87.93;36.30;;;;;;;;;;5082354;28;20506;-59
2021/09/06 05:32:10;;;;;;;73.38;33.58;;;;;;;;;;5089547;28;20113;-58
2021/09/06 05:34:35;;;;;;;137.63;38.22;;;;;;;;;;5088738;28;20102;-59
2021/09/06 05:37:01;;;;;;;149.95;40.95;;;;;;;;;;5090050;28;20031;-58
2021/09/06 05:39:26;;;;;;;138.13;38.15;;;;;;;;;;5090711;28;20039;-58
2021/09/06 05:41:51;;;;;;;122.95;39.42;;;;;;;;;;5090080;28;20028;-59
2021/09/06 05:44:16;;;;;;;110.85;38.92;;;;;;;;;;5085825;28;20534;-59
2021/09/06 05:46:41;;;;;;;93.47;37.80;;;;;;;;;;5077450;28;20020;-59
2021/09/06 05:49:06;;;;;;;70.03;34.20;;;;;;;;;;5090192;28;20024;-59
2021/09/06 05:51:32;;;;;;;164.20;41.10;;;;;;;;;;5090578;28;20028;-59
2021/09/06 05:53:57;;;;;;;70.15;32.97;;;;;;;;;;5089065;28;20031;-58
2021/09/06 05:56:22;;;;;;;60.58;32.90;;;;;;;;;;5078717;28;20351;-59
2021/09/06 05:58:47;;;;;;;100.45;36.22;;;;;;;;;;5078299;28;20084;-57
2021/09/06 06:01:13;;;;;;;98.70;34.83;;;;;;;;;;5077777;28;20487;-58
2021/09/06 06:03:38;;;;;;;48.38;31.23;;;;;;;;;;5090802;28;20020;-58
2021/09/06 06:06:03;;;;;;;64.47;33.05;;;;;;;;;;5080610;28;20482;-58
2021/09/06 06:08:29;;;;;;;67.22;32.72;;;;;;;;;;5072219;28;20024;-57
2021/09/06 06:10:54;;;;;;;75.15;32.95;;;;;;;;;;5076628;28;20047;-59
2021/09/06 06:13:19;;;;;;;55.72;31.80;;;;;;;;;;5089994;28;20382;-59
2021/09/06 06:15:44;;;;;;;50.08;29.98;;;;;;;;;;5083822;28;20020;-59
2021/09/06 06:18:10;;;;;;;207.93;37.38;;;;;;;;;;5089368;28;20031;-58
2021/09/06 06:20:35;;;;;;;84.53;32.17;;;;;;;;;;5090303;28;20020;-59
2021/09/06 06:23:00;;;;;;;56.03;33.70;;;;;;;;;;5089280;28;20012;-60
2021/09/06 06:25:25;;;;;;;76.28;36.08;;;;;;;;;;5094261;28;20016;-59
2021/09/06 06:27:50;;;;;;;40.03;29.13;;;;;;;;;;5094797;28;20026;-60
2021/09/06 06:30:16;;;;;;;32.97;26.63;;;;;;;;;;5083939;28;20024;-60
2021/09/06 06:32:41;;;;;;;31.40;24.83;;;;;;;;;;5072055;28;20016;-59
2021/09/06 06:35:06;;;;;;;30.98;24.90;;;;;;;;;;5092419;28;20030;-59
2021/09/06 06:37:32;;;;;;;37.00;27.42;;;;;;;;;;5093786;28;20016;-59
2021/09/06 06:39:57;;;;;;;31.15;26.55;;;;;;;;;;5095166;28;20020;-59
2021/09/06 06:42:22;;;;;;;30.75;25.08;;;;;;;;;;5092573;28;20023;-59
2021/09/06 06:44:47;;;;;;;31.92;25.50;;;;;;;;;;5095101;28;20407;-59
2021/09/06 06:47:12;;;;;;;30.58;24.58;;;;;;;;;;5108837;28;20030;-59
2021/09/06 06:49:38;;;;;;;30.95;26.40;;;;;;;;;;5094486;28;20484;-59
2021/09/06 06:52:03;;;;;;;30.70;25.65;;;;;;;;;;5074374;28;20027;-58
2021/09/06 06:54:28;;;;;;;27.55;24.40;;;;;;;;;;5093966;28;20028;-59
2021/09/06 06:56:53;;;;;;;26.67;23.17;;;;;;;;;;5094288;28;20023;-58
2021/09/06 06:59:19;;;;;;;29.67;25.20;;;;;;;;;;5091969;28;20024;-59
2021/09/06 07:01:44;;;;;;;26.63;22.90;;;;;;;;;;5094712;28;20035;-59
2021/09/06 07:04:09;;;;;;;27.35;24.35;;;;;;;;;;5080060;28;20020;-59
2021/09/06 07:06:34;;;;;;;26.42;23.63;;;;;;;;;;5093498;28;20074;-59
2021/09/06 07:09:00;;;;;;;28.40;24.15;;;;;;;;;;5094176;28;20073;-59
2021/09/06 07:11:25;;;;;;;26.58;22.40;;;;;;;;;;5091961;28;20322;-59
2021/09/06 07:13:50;;;;;;;23.95;20.88;;;;;;;;;;5094829;28;20036;-59
2021/09/06 07:16:16;;;;;;;24.60;22.08;;;;;;;;;;5094030;28;20024;-59
2021/09/06 07:18:41;;;;;;;28.23;22.35;;;;;;;;;;5093783;28;20072;-59
2021/09/06 07:21:06;;;;;;;26.45;21.65;;;;;;;;;;5079483;28;20032;-59
2021/09/06 07:23:31;;;;;;;26.75;21.98;;;;;;;;;;5086347;28;20149;-59
2021/09/06 07:25:57;;;;;;;28.42;23.55;;;;;;;;;;5074891;28;20025;-58
2021/09/06 07:28:22;;;;;;;29.10;23.17;;;;;;;;;;5092542;28;20386;-58
2021/09/06 07:30:47;;;;;;;26.65;21.80;;;;;;;;;;5086969;28;20036;-59
2021/09/06 07:33:12;;;;;;;24.40;21.80;;;;;;;;;;5091272;28;20161;-60
2021/09/06 07:35:37;;;;;;;25.48;22.38;;;;;;;;;;5094299;28;20020;-60
2021/09/06 07:38:03;;;;;;;24.73;21.58;;;;;;;;;;5093774;28;20028;-59
2021/09/06 07:40:28;;;;;;;24.77;22.15;;;;;;;;;;5092378;28;20028;-59
2021/09/06 07:42:53;;;;;;;25.52;21.52;;;;;;;;;;5093871;28;20020;-59
2021/09/06 07:45:18;;;;;;;26.25;22.35;;;;;;;;;;5092076;28;20445;-59
2021/09/06 07:47:43;;;;;;;24.33;21.27;;;;;;;;;;5093920;28;20093;-58
2021/09/06 07:50:10;;;;;;;21.63;19.33;;;;;;;;;;5092685;28;20028;-58
2021/09/06 07:52:36;;;;;;;20.83;18.50;;;;;;;;;;5084039;28;20051;-58
2021/09/06 07:55:04;;;;;;;20.52;17.60;;;;;;;;;;5093997;28;20048;-60
2021/09/06 07:57:30;;;;;;;21.35;19.02;;;;;;;;;;5088908;28;20044;-59
2021/09/06 07:59:55;;;;;;;20.80;18.38;;;;;;;;;;5092765;28;20055;-59
2021/09/06 08:02:20;;;;;;;21.05;18.02;;;;;;;;;;5086776;28;20052;-59
2021/09/06 08:04:45;;;;;;;19.40;16.70;;;;;;;;;;5073198;28;20029;-59
2021/09/06 08:07:11;;;;;;;19.30;17.20;;;;;;;;;;5081831;28;20767;-59
2021/09/06 08:09:36;;;;;;;19.23;17.20;;;;;;;;;;5093104;28;20032;-58
2021/09/06 08:12:01;;;;;;;18.83;15.48;;;;;;;;;;5091642;28;20016;-59
2021/09/06 08:14:27;;;;;;;18.05;16.17;;;;;;;;;;5093154;28;20028;-58
2021/09/06 08:16:53;;;;;;;18.65;16.70;;;;;;;;;;5092497;28;20024;-58
2021/09/06 08:19:18;;;;;;;18.83;15.43;;;;;;;;;;5091660;28;20035;-59
2021/09/06 08:21:43;;;;;;;19.02;16.35;;;;;;;;;;5096798;28;20035;-59
2021/09/06 08:24:08;;;;;;;21.20;16.90;;;;;;;;;;5093161;28;20023;-59
2021/09/06 08:26:33;;;;;;;18.38;16.48;;;;;;;;;;5093006;28;20361;-59
2021/09/06 08:28:59;;;;;;;18.48;15.95;;;;;;;;;;5091212;28;20498;-58
2021/09/06 08:31:25;;;;;;;19.15;16.40;;;;;;;;;;5091508;28;20490;-59
2021/09/06 08:33:51;;;;;;;18.55;15.82;;;;;;;;;;5091625;28;20024;-58
2021/09/06 08:36:16;;;;;;;19.02;15.85;;;;;;;;;;5092893;28;20234;-59
2021/09/06 08:38:41;;;;;;;17.73;15.65;;;;;;;;;;5091425;28;20087;-58
2021/09/06 08:41:07;;;;;;;17.23;15.40;;;;;;;;;;5090973;28;20028;-57
2021/09/06 08:43:32;;;;;;;17.25;15.40;;;;;;;;;;5087493;28;20339;-58
2021/09/06 08:45:59;;;;;;;17.42;15.63;;;;;;;;;;5091895;28;20115;-58
2021/09/06 08:48:24;;;;;;;17.52;15.43;;;;;;;;;;5091666;28;20106;-58
2021/09/06 08:50:50;;;;;;;17.02;14.80;;;;;;;;;;5089681;28;20526;-60
2021/09/06 08:53:15;;;;;;;17.33;15.50;;;;;;;;;;5090939;28;20030;-59
2021/09/06 08:55:40;;;;;;;16.83;15.02;;;;;;;;;;5077425;28;20463;-58
2021/09/06 08:58:06;;;;;;;17.17;15.38;;;;;;;;;;5081814;28;20047;-58
2021/09/06 09:00:31;;;;;;;17.17;15.20;;;;;;;;;;5078714;28;20025;-59
2021/09/06 09:02:57;;;;;;;16.00;13.32;;;;;;;;;;5092843;28;20099;-58
2021/09/06 09:05:22;;;;;;;14.93;13.20;;;;;;;;;;5087761;28;20024;-59
2021/09/06 09:07:55;;;;;;;15.48;13.23;;;;;;;;;;5091550;28;20098;-59
2021/09/06 09:10:27;;;;;;;16.90;14.23;;;;;;;;;;5091401;28;20417;-59
2021/09/06 09:13:01;;;;;;;15.38;13.75;;;;;;;;;;5087510;28;20016;-59
2021/09/06 09:15:26;;;;;;;16.63;13.07;;;;;;;;;;5076679;28;20020;-59
2021/09/06 09:17:52;;;;;;;13.65;12.25;;;;;;;;;;5092494;28;20273;-59
2021/09/06 09:20:17;;;;;;;14.23;12.77;;;;;;;;;;5091153;28;20031;-59
2021/09/06 09:22:44;;;;;;;15.80;14.20;;;;;;;;;;5090445;28;20050;-59
2021/09/06 09:25:10;;;;;;;17.77;14.15;;;;;;;;;;5091509;28;20378;-59
2021/09/06 09:27:43;;;;;;;15.55;13.95;;;;;;;;;;5088886;28;20016;-59
2021/09/06 09:30:22;;;;;;;14.85;13.25;;;;;;;;;;5090956;28;20494;-58
2021/09/06 09:32:47;;;;;;;15.52;12.57;;;;;;;;;;5091532;28;20271;-59
2021/09/06 09:35:12;;;;;;;15.20;13.70;;;;;;;;;;5085209;28;20161;-59
2021/09/06 09:37:37;;;;;;;17.20;14.52;;;;;;;;;;5090981;28;20099;-59
2021/09/06 09:40:04;;;;;;;14.82;12.70;;;;;;;;;;5091423;28;20523;-58
2021/09/06 09:42:30;;;;;;;13.73;11.95;;;;;;;;;;5091245;28;20024;-58
2021/09/06 09:44:56;;;;;;;15.00;12.85;;;;;;;;;;5090512;28;20451;-59
2021/09/06 09:47:23;;;;;;;16.33;12.10;;;;;;;;;;5091581;28;20024;-60
2021/09/06 09:49:49;;;;;;;14.93;13.40;;;;;;;;;;5090245;28;20031;-59
2021/09/06 09:52:18;;;;;;;14.82;13.32;;;;;;;;;;5090965;28;20103;-60
2021/09/06 09:54:45;;;;;;;14.80;12.65;;;;;;;;;;5090573;28;20030;-59
2021/09/06 09:57:11;;;;;;;16.92;15.23;;;;;;;;;;5090856;28;20385;-61
2021/09/06 09:59:37;;;;;;;18.48;14.32;;;;;;;;;;5087389;28;20458;-58
2021/09/06 10:02:02;;;;;;;15.32;13.73;;;;;;;;;;5089668;28;20035;-59
2021/09/06 10:04:30;;;;;;;16.25;13.25;;;;;;;;;;5091428;28;20020;-59
2021/09/06 10:06:57;;;;;;;15.75;11.73;;;;;;;;;;5090134;28;20405;-58
2021/09/06 10:09:22;;;;;;;13.00;11.65;;;;;;;;;;5087483;28;20020;-59
2021/09/06 10:11:48;;;;;;;15.15;13.55;;;;;;;;;;5089239;28;20110;-59
2021/09/06 10:14:21;;;;;;;15.85;13.10;;;;;;;;;;5087026;28;20447;-58
2021/09/06 10:16:47;;;;;;;13.27;12.07;;;;;;;;;;5071921;28;20024;-58
2021/09/06 10:19:12;;;;;;;17.67;13.07;;;;;;;;;;5090504;28;20024;-59
2021/09/06 10:21:39;;;;;;;16.30;14.45;;;;;;;;;;5091361;28;20466;-59
2021/09/06 10:24:11;;;;;;;15.65;14.00;;;;;;;;;;5084911;28;20501;-59
2021/09/06 10:26:37;;;;;;;14.52;13.00;;;;;;;;;;5090404;28;20178;-59
2021/09/06 10:29:11;;;;;;;14.52;11.48;;;;;;;;;;5091047;28;20122;-60
2021/09/06 10:31:36;;;;;;;13.88;12.45;;;;;;;;;;5089280;28;20024;-60
2021/09/06 10:34:02;;;;;;;12.97;11.67;;;;;;;;;;5089156;28;20024;-59
2021/09/06 10:36:28;;;;;;;14.48;13.07;;;;;;;;;;5089430;28;20751;-58
2021/09/06 10:39:04;;;;;;;13.32;11.60;;;;;;;;;;5090452;28;20110;-58
2021/09/06 10:41:29;;;;;;;14.18;12.77;;;;;;;;;;5089215;28;20370;-59
2021/09/06 10:43:57;;;;;;;13.87;11.50;;;;;;;;;;5090135;28;20031;-58
2021/09/06 10:46:24;;;;;;;15.02;13.55;;;;;;;;;;5090098;28;20118;-59
2021/09/06 10:48:50;;;;;;;13.90;12.60;;;;;;;;;;5072341;28;20012;-59
2021/09/06 10:51:22;;;;;;;12.50;11.30;;;;;;;;;;5090915;28;20462;-58
2021/09/06 10:53:49;;;;;;;12.65;11.52;;;;;;;;;;5091013;28;20347;-59
2021/09/06 10:56:14;;;;;;;12.60;11.40;;;;;;;;;;5088269;28;20024;-59
2021/09/06 10:58:39;;;;;;;12.47;11.27;;;;;;;;;;5087963;28;20103;-59
2021/09/06 11:01:08;;;;;;;11.13;10.13;;;;;;;;;;5089309;28;20020;-59
2021/09/06 11:03:34;;;;;;;11.45;10.25;;;;;;;;;;5090342;28;20086;-58
2021/09/06 11:06:00;;;;;;;13.77;12.50;;;;;;;;;;5090627;28;20012;-58
2021/09/06 11:08:26;;;;;;;13.73;12.38;;;;;;;;;;5093136;28;20100;-59
2021/09/06 11:10:52;;;;;;;13.88;12.60;;;;;;;;;;5082970;28;20442;-59
2021/09/06 11:13:18;;;;;;;12.40;11.35;;;;;;;;;;5075985;28;20081;-58
2021/09/06 11:15:43;;;;;;;12.47;11.23;;;;;;;;;;5093450;28;20032;-59
2021/09/06 11:18:09;;;;;;;12.17;10.97;;;;;;;;;;5100223;28;20293;-58
2021/09/06 11:20:35;;;;;;;13.13;11.88;;;;;;;;;;5094294;28;20103;-59
2021/09/06 11:23:02;;;;;;;11.15;10.10;;;;;;;;;;5092191;28;20073;-59
2021/09/06 11:25:29;;;;;;;11.27;10.20;;;;;;;;;;5092557;28;20111;-59
2021/09/06 11:28:03;;;;;;;13.43;11.90;;;;;;;;;;5097481;28;20021;-59
2021/09/06 11:30:28;;;;;;;12.27;11.13;;;;;;;;;;5093875;28;20012;-59
2021/09/06 11:32:53;;;;;;;12.20;10.93;;;;;;;;;;5094422;28;20020;-59
2021/09/06 11:35:19;;;;;;;10.40;9.50;;;;;;;;;;5100909;28;20012;-60
2021/09/06 11:37:45;;;;;;;11.32;10.18;;;;;;;;;;5099042;28;20027;-60
2021/09/06 11:40:10;;;;;;;9.90;8.75;;;;;;;;;;5096703;28;20015;-60
2021/09/06 11:42:36;;;;;;;10.77;9.80;;;;;;;;;;5096902;28;20039;-59
2021/09/06 11:45:02;;;;;;;10.68;9.60;;;;;;;;;;5093297;28;20016;-60
2021/09/06 11:47:29;;;;;;;10.10;8.70;;;;;;;;;;5093136;28;20024;-59
2021/09/06 11:49:55;;;;;;;9.65;8.75;;;;;;;;;;5100715;28;20012;-59
2021/09/06 11:52:30;;;;;;;10.57;9.68;;;;;;;;;;5093442;28;20408;-59
2021/09/06 11:54:56;;;;;;;9.90;8.90;;;;;;;;;;5093050;28;20020;-60
2021/09/06 11:57:29;;;;;;;10.45;9.65;;;;;;;;;;5092584;28;20119;-59
2021/09/06 11:59:55;;;;;;;10.90;10.07;;;;;;;;;;5092810;28;20051;-59
2021/09/06 12:02:22;;;;;;;8.60;7.78;;;;;;;;;;5093021;28;20114;-59
2021/09/06 12:04:47;;;;;;;6.97;6.45;;;;;;;;;;5093220;28;20082;-59
2021/09/06 12:07:16;;;;;;;7.35;6.75;;;;;;;;;;5093332;28;20016;-59
2021/09/06 12:09:41;;;;;;;7.13;6.55;;;;;;;;;;5093451;28;20074;-60
2021/09/06 12:12:20;;;;;;;6.83;6.33;;;;;;;;;;5092329;28;20028;-60
2021/09/06 12:14:45;;;;;;;7.03;6.30;;;;;;;;;;5075079;28;20029;-59
2021/09/06 12:17:11;;;;;;;6.00;5.35;;;;;;;;;;5093115;28;20378;-60
2021/09/06 12:19:40;;;;;;;7.70;7.13;;;;;;;;;;5091482;28;20023;-59
2021/09/06 12:22:12;;;;;;;6.25;5.57;;;;;;;;;;5092805;28;20111;-59
2021/09/06 12:24:38;;;;;;;7.85;6.20;;;;;;;;;;5093069;28;20024;-59
2021/09/06 12:27:09;;;;;;;6.68;6.18;;;;;;;;;;5092646;28;20036;-59
2021/09/06 12:29:35;;;;;;;6.43;5.82;;;;;;;;;;5091125;28;20078;-59
2021/09/06 12:32:01;;;;;;;6.40;5.85;;;;;;;;;;5092486;28;20048;-59
2021/09/06 12:34:27;;;;;;;6.03;5.53;;;;;;;;;;5091965;28;20394;-59
2021/09/06 12:36:53;;;;;;;6.13;5.63;;;;;;;;;;5074678;28;20023;-59
2021/09/06 12:39:18;;;;;;;6.13;5.53;;;;;;;;;;5092791;28;20374;-59
2021/09/06 12:41:43;;;;;;;5.68;5.28;;;;;;;;;;5092556;28;20061;-60
2021/09/06 12:44:09;;;;;;;5.53;5.13;;;;;;;;;;5093261;28;20016;-59
2021/09/06 12:46:34;;;;;;;5.90;5.50;;;;;;;;;;5091979;28;20154;-59
2021/09/06 12:48:59;;;;;;;6.03;5.63;;;;;;;;;;5099832;28;20494;-59
2021/09/06 12:51:24;;;;;;;6.40;5.83;;;;;;;;;;5084889;28;20101;-59
2021/09/06 12:53:50;;;;;;;6.50;5.90;;;;;;;;;;5092332;28;20118;-60
2021/09/06 12:56:15;;;;;;;6.20;5.63;;;;;;;;;;5092489;28;20261;-58
2021/09/06 12:58:41;;;;;;;6.28;5.78;;;;;;;;;;5092210;28;20020;-59
2021/09/06 13:01:06;;;;;;;5.07;4.77;;;;;;;;;;5092009;28;20036;-60
2021/09/06 13:03:31;;;;;;;5.27;4.87;;;;;;;;;;5091690;28;20011;-59
2021/09/06 13:05:57;;;;;;;4.87;4.50;;;;;;;;;;5091845;28;20024;-60
2021/09/06 13:08:22;;;;;;;4.82;4.43;;;;;;;;;;5092542;28;20008;-60
2021/09/06 13:10:50;;;;;;;5.13;4.67;;;;;;;;;;5088545;28;20021;-58
2021/09/06 13:13:15;;;;;;;4.97;4.43;;;;;;;;;;5091749;28;20428;-59
2021/09/06 13:15:40;;;;;;;4.40;4.10;;;;;;;;;;5103795;28;20065;-59
2021/09/06 13:18:05;;;;;;;4.80;4.40;;;;;;;;;;5094692;28;20012;-59
2021/09/06 13:20:31;;;;;;;5.03;4.73;;;;;;;;;;5091497;28;20015;-59
2021/09/06 13:22:56;;;;;;;4.87;4.53;;;;;;;;;;5092049;28;20028;-59
2021/09/06 13:25:21;;;;;;;4.53;4.13;;;;;;;;;;5091923;28;20280;-59
2021/09/06 13:27:46;;;;;;;4.57;4.28;;;;;;;;;;5090086;28;20024;-60
2021/09/06 13:30:14;;;;;;;5.00;4.60;;;;;;;;;;5090848;28;20366;-60
2021/09/06 13:32:39;;;;;;;5.35;4.85;;;;;;;;;;5090631;28;20030;-60
2021/09/06 13:35:04;;;;;;;4.40;4.10;;;;;;;;;;5091740;28;20016;-60
2021/09/06 13:37:30;;;;;;;5.07;4.68;;;;;;;;;;5091781;28;20254;-60
2021/09/06 13:39:55;;;;;;;5.17;4.77;;;;;;;;;;5090624;28;20028;-60
2021/09/06 13:42:20;;;;;;;4.87;4.57;;;;;;;;;;5091528;28;20290;-60
2021/09/06 13:44:45;;;;;;;4.90;4.60;;;;;;;;;;5091563;28;20889;-60
2021/09/06 13:47:10;;;;;;;5.03;4.73;;;;;;;;;;5090656;28;20813;-60
2021/09/06 13:49:36;;;;;;;5.13;4.73;;;;;;;;;;5082712;28;20282;-59
2021/09/06 13:52:01;;;;;;;5.00;4.67;;;;;;;;;;5089533;28;20051;-59
2021/09/06 13:54:26;;;;;;;5.03;4.53;;;;;;;;;;5089575;28;20119;-59
2021/09/06 13:56:52;;;;;;;4.67;4.37;;;;;;;;;;5089379;28;20619;-59
2021/09/06 13:59:18;;;;;;;5.03;4.73;;;;;;;;;;5090404;28;20294;-59
2021/09/06 14:01:44;;;;;;;5.82;5.32;;;;;;;;;;5087383;28;20496;-60
2021/09/06 14:04:09;;;;;;;5.50;5.00;;;;;;;;;;5089324;28;20016;-60
2021/09/06 14:06:34;;;;;;;5.50;5.00;;;;;;;;;;5090049;28;20016;-60
2021/09/06 14:09:00;;;;;;;5.65;5.15;;;;;;;;;;5091657;28;20020;-60